sensor_id;sensor_type;location;lat;lon;timestamp;P1;durP1;ratioP1;P2;durP2;ratioP2
76935;SDS011;65881;52.438;16.744;2023-05-07T00:00:41;12.70;;;8.63;;
76935;SDS011;65881;52.438;16.744;2023-05-07T00:03:07;13.70;;;9.50;;
76935;SDS011;65881;52.438;16.744;2023-05-07T00:05:33;15.88;;;9.55;;
76935;SDS011;65881;52.438;16.744;2023-05-07T00:07:58;14.50;;;9.80;;
76935;SDS011;65881;52.438;16.744;2023-05-07T00:10:24;13.73;;;9.90;;
76935;SDS011;65881;52.438;16.744;2023-05-07T00:12:50;15.15;;;8.90;;
76935;SDS011;65881;52.438;16.744;2023-05-07T00:15:16;14.82;;;8.65;;
76935;SDS011;65881;52.438;16.744;2023-05-07T00:17:42;14.13;;;8.43;;
76935;SDS011;65881;52.438;16.744;2023-05-07T00:20:07;11.40;;;9.07;;
76935;SDS011;65881;52.438;16.744;2023-05-07T00:22:33;13.75;;;8.65;;
76935;SDS011;65881;52.438;16.744;2023-05-07T00:24:59;12.90;;;8.73;;
76935;SDS011;65881;52.438;16.744;2023-05-07T00:27:25;13.98;;;8.60;;
76935;SDS011;65881;52.438;16.744;2023-05-07T00:29:50;14.10;;;8.77;;
76935;SDS011;65881;52.438;16.744;2023-05-07T00:32:16;15.20;;;9.52;;
76935;SDS011;65881;52.438;16.744;2023-05-07T00:34:42;14.13;;;9.32;;
76935;SDS011;65881;52.438;16.744;2023-05-07T00:37:08;13.50;;;8.57;;
76935;SDS011;65881;52.438;16.744;2023-05-07T00:39:34;10.30;;;8.20;;
76935;SDS011;65881;52.438;16.744;2023-05-07T00:42:01;13.40;;;9.55;;
76935;SDS011;65881;52.438;16.744;2023-05-07T00:44:27;13.25;;;8.98;;
76935;SDS011;65881;52.438;16.744;2023-05-07T00:46:53;14.38;;;9.43;;
76935;SDS011;65881;52.438;16.744;2023-05-07T00:49:19;12.30;;;8.85;;
76935;SDS011;65881;52.438;16.744;2023-05-07T00:51:45;15.82;;;9.02;;
76935;SDS011;65881;52.438;16.744;2023-05-07T00:54:11;16.10;;;9.77;;
76935;SDS011;65881;52.438;16.744;2023-05-07T00:56:38;14.27;;;9.77;;
76935;SDS011;65881;52.438;16.744;2023-05-07T00:59:05;14.10;;;9.85;;
76935;SDS011;65881;52.438;16.744;2023-05-07T01:01:31;14.40;;;11.20;;
76935;SDS011;65881;52.438;16.744;2023-05-07T01:03:57;17.85;;;10.88;;
76935;SDS011;65881;52.438;16.744;2023-05-07T01:06:23;17.23;;;11.45;;
76935;SDS011;65881;52.438;16.744;2023-05-07T01:08:50;17.65;;;11.32;;
76935;SDS011;65881;52.438;16.744;2023-05-07T01:11:18;18.08;;;11.30;;
76935;SDS011;65881;52.438;16.744;2023-05-07T01:13:45;19.02;;;12.73;;
76935;SDS011;65881;52.438;16.744;2023-05-07T01:16:12;16.73;;;10.45;;
76935;SDS011;65881;52.438;16.744;2023-05-07T01:18:37;16.98;;;11.35;;
76935;SDS011;65881;52.438;16.744;2023-05-07T01:21:04;15.98;;;10.85;;
76935;SDS011;65881;52.438;16.744;2023-05-07T01:23:30;14.80;;;11.02;;
76935;SDS011;65881;52.438;16.744;2023-05-07T01:25:57;15.45;;;10.90;;
76935;SDS011;65881;52.438;16.744;2023-05-07T01:28:23;15.95;;;12.32;;
76935;SDS011;65881;52.438;16.744;2023-05-07T01:30:53;15.75;;;11.15;;
76935;SDS011;65881;52.438;16.744;2023-05-07T01:33:21;18.70;;;11.43;;
76935;SDS011;65881;52.438;16.744;2023-05-07T01:35:49;18.55;;;12.32;;
76935;SDS011;65881;52.438;16.744;2023-05-07T01:38:17;14.68;;;10.77;;
76935;SDS011;65881;52.438;16.744;2023-05-07T01:40:43;14.27;;;9.43;;
76935;SDS011;65881;52.438;16.744;2023-05-07T01:43:10;14.93;;;9.88;;
76935;SDS011;65881;52.438;16.744;2023-05-07T01:45:37;16.45;;;10.43;;
76935;SDS011;65881;52.438;16.744;2023-05-07T01:48:04;15.95;;;10.57;;
76935;SDS011;65881;52.438;16.744;2023-05-07T01:50:31;17.40;;;11.75;;
76935;SDS011;65881;52.438;16.744;2023-05-07T01:52:57;16.20;;;11.43;;
76935;SDS011;65881;52.438;16.744;2023-05-07T01:55:23;19.00;;;12.52;;
76935;SDS011;65881;52.438;16.744;2023-05-07T01:57:48;12.20;;;10.05;;
76935;SDS011;65881;52.438;16.744;2023-05-07T02:00:14;16.80;;;11.48;;
76935;SDS011;65881;52.438;16.744;2023-05-07T02:02:40;16.77;;;11.02;;
76935;SDS011;65881;52.438;16.744;2023-05-07T02:05:06;16.23;;;12.05;;
76935;SDS011;65881;52.438;16.744;2023-05-07T02:07:32;17.77;;;10.88;;
76935;SDS011;65881;52.438;16.744;2023-05-07T02:09:59;17.20;;;11.55;;
76935;SDS011;65881;52.438;16.744;2023-05-07T02:12:24;19.80;;;11.00;;
76935;SDS011;65881;52.438;16.744;2023-05-07T02:14:50;17.27;;;10.70;;
76935;SDS011;65881;52.438;16.744;2023-05-07T02:17:16;15.85;;;11.27;;
76935;SDS011;65881;52.438;16.744;2023-05-07T02:19:41;17.08;;;12.38;;
76935;SDS011;65881;52.438;16.744;2023-05-07T02:22:07;18.67;;;12.70;;
76935;SDS011;65881;52.438;16.744;2023-05-07T02:24:34;19.92;;;12.90;;
76935;SDS011;65881;52.438;16.744;2023-05-07T02:27:00;21.10;;;13.20;;
76935;SDS011;65881;52.438;16.744;2023-05-07T02:29:26;17.13;;;12.50;;
76935;SDS011;65881;52.438;16.744;2023-05-07T02:31:51;24.75;;;14.18;;
76935;SDS011;65881;52.438;16.744;2023-05-07T02:34:18;20.98;;;12.95;;
76935;SDS011;65881;52.438;16.744;2023-05-07T02:36:44;22.70;;;14.13;;
76935;SDS011;65881;52.438;16.744;2023-05-07T02:39:10;21.90;;;12.90;;
76935;SDS011;65881;52.438;16.744;2023-05-07T02:41:37;18.40;;;12.35;;
76935;SDS011;65881;52.438;16.744;2023-05-07T02:44:02;18.35;;;12.68;;
76935;SDS011;65881;52.438;16.744;2023-05-07T02:46:28;21.58;;;12.65;;
76935;SDS011;65881;52.438;16.744;2023-05-07T02:48:54;19.92;;;13.85;;
76935;SDS011;65881;52.438;16.744;2023-05-07T02:51:20;20.25;;;13.45;;
76935;SDS011;65881;52.438;16.744;2023-05-07T02:56:15;23.08;;;11.52;;
76935;SDS011;65881;52.438;16.744;2023-05-07T02:58:41;19.55;;;11.98;;
76935;SDS011;65881;52.438;16.744;2023-05-07T03:01:07;14.93;;;10.82;;
76935;SDS011;65881;52.438;16.744;2023-05-07T03:03:33;19.40;;;11.55;;
76935;SDS011;65881;52.438;16.744;2023-05-07T03:05:59;17.35;;;12.02;;
76935;SDS011;65881;52.438;16.744;2023-05-07T03:08:25;21.38;;;13.13;;
76935;SDS011;65881;52.438;16.744;2023-05-07T03:10:51;17.27;;;11.68;;
76935;SDS011;65881;52.438;16.744;2023-05-07T03:13:16;23.98;;;12.73;;
76935;SDS011;65881;52.438;16.744;2023-05-07T03:15:42;22.33;;;12.88;;
76935;SDS011;65881;52.438;16.744;2023-05-07T03:18:08;25.92;;;12.70;;
76935;SDS011;65881;52.438;16.744;2023-05-07T03:20:33;18.55;;;13.02;;
76935;SDS011;65881;52.438;16.744;2023-05-07T03:23:01;15.30;;;12.00;;
76935;SDS011;65881;52.438;16.744;2023-05-07T03:25:27;18.95;;;12.57;;
76935;SDS011;65881;52.438;16.744;2023-05-07T03:27:53;16.02;;;10.93;;
76935;SDS011;65881;52.438;16.744;2023-05-07T03:30:18;15.65;;;10.00;;
76935;SDS011;65881;52.438;16.744;2023-05-07T03:32:45;17.70;;;11.95;;
76935;SDS011;65881;52.438;16.744;2023-05-07T03:35:10;16.88;;;10.30;;
76935;SDS011;65881;52.438;16.744;2023-05-07T03:37:37;14.48;;;11.60;;
76935;SDS011;65881;52.438;16.744;2023-05-07T03:40:03;19.30;;;11.23;;
76935;SDS011;65881;52.438;16.744;2023-05-07T03:42:29;18.70;;;11.65;;
76935;SDS011;65881;52.438;16.744;2023-05-07T03:44:55;14.95;;;11.50;;
76935;SDS011;65881;52.438;16.744;2023-05-07T03:47:21;15.30;;;11.10;;
76935;SDS011;65881;52.438;16.744;2023-05-07T03:49:46;18.80;;;11.95;;
76935;SDS011;65881;52.438;16.744;2023-05-07T03:52:13;15.85;;;10.50;;
76935;SDS011;65881;52.438;16.744;2023-05-07T03:54:40;16.27;;;11.68;;
76935;SDS011;65881;52.438;16.744;2023-05-07T03:57:06;16.73;;;11.40;;
76935;SDS011;65881;52.438;16.744;2023-05-07T03:59:32;17.45;;;10.18;;
76935;SDS011;65881;52.438;16.744;2023-05-07T04:01:57;13.82;;;9.50;;
76935;SDS011;65881;52.438;16.744;2023-05-07T04:04:23;15.43;;;10.70;;
76935;SDS011;65881;52.438;16.744;2023-05-07T04:06:49;13.73;;;8.65;;
76935;SDS011;65881;52.438;16.744;2023-05-07T04:09:15;12.60;;;8.68;;
76935;SDS011;65881;52.438;16.744;2023-05-07T04:11:40;17.90;;;9.68;;
76935;SDS011;65881;52.438;16.744;2023-05-07T04:14:06;14.82;;;11.13;;
76935;SDS011;65881;52.438;16.744;2023-05-07T04:16:32;13.45;;;9.90;;
76935;SDS011;65881;52.438;16.744;2023-05-07T04:18:59;10.20;;;8.48;;
76935;SDS011;65881;52.438;16.744;2023-05-07T04:21:24;15.90;;;9.40;;
76935;SDS011;65881;52.438;16.744;2023-05-07T04:23:51;16.38;;;9.57;;
76935;SDS011;65881;52.438;16.744;2023-05-07T04:26:17;12.85;;;8.63;;
76935;SDS011;65881;52.438;16.744;2023-05-07T04:28:43;12.25;;;8.90;;
76935;SDS011;65881;52.438;16.744;2023-05-07T04:31:08;14.77;;;10.02;;
76935;SDS011;65881;52.438;16.744;2023-05-07T04:33:34;13.30;;;9.15;;
76935;SDS011;65881;52.438;16.744;2023-05-07T04:36:03;14.27;;;9.70;;
76935;SDS011;65881;52.438;16.744;2023-05-07T04:38:30;16.30;;;9.88;;
76935;SDS011;65881;52.438;16.744;2023-05-07T04:40:56;19.63;;;11.88;;
76935;SDS011;65881;52.438;16.744;2023-05-07T04:43:23;14.88;;;10.00;;
76935;SDS011;65881;52.438;16.744;2023-05-07T04:45:51;14.23;;;9.40;;
76935;SDS011;65881;52.438;16.744;2023-05-07T04:48:17;14.25;;;8.98;;
76935;SDS011;65881;52.438;16.744;2023-05-07T04:50:47;14.88;;;9.05;;
76935;SDS011;65881;52.438;16.744;2023-05-07T04:53:13;13.88;;;9.60;;
76935;SDS011;65881;52.438;16.744;2023-05-07T04:55:38;15.63;;;10.55;;
76935;SDS011;65881;52.438;16.744;2023-05-07T04:58:04;15.20;;;9.38;;
76935;SDS011;65881;52.438;16.744;2023-05-07T05:00:30;16.80;;;9.40;;
76935;SDS011;65881;52.438;16.744;2023-05-07T05:02:56;13.60;;;9.38;;
76935;SDS011;65881;52.438;16.744;2023-05-07T05:05:21;13.57;;;9.23;;
76935;SDS011;65881;52.438;16.744;2023-05-07T05:07:47;15.50;;;9.35;;
76935;SDS011;65881;52.438;16.744;2023-05-07T05:10:13;12.60;;;8.90;;
76935;SDS011;65881;52.438;16.744;2023-05-07T05:12:38;16.65;;;9.45;;
76935;SDS011;65881;52.438;16.744;2023-05-07T05:15:05;15.05;;;10.10;;
76935;SDS011;65881;52.438;16.744;2023-05-07T05:17:31;16.52;;;9.77;;
76935;SDS011;65881;52.438;16.744;2023-05-07T05:19:56;14.07;;;9.13;;
76935;SDS011;65881;52.438;16.744;2023-05-07T05:22:22;10.70;;;9.32;;
76935;SDS011;65881;52.438;16.744;2023-05-07T05:24:48;12.98;;;8.68;;
76935;SDS011;65881;52.438;16.744;2023-05-07T05:27:13;13.13;;;7.85;;
76935;SDS011;65881;52.438;16.744;2023-05-07T05:29:39;17.17;;;8.57;;
76935;SDS011;65881;52.438;16.744;2023-05-07T05:32:05;10.48;;;8.07;;
76935;SDS011;65881;52.438;16.744;2023-05-07T05:34:31;10.23;;;7.55;;
76935;SDS011;65881;52.438;16.744;2023-05-07T05:36:58;9.50;;;6.80;;
76935;SDS011;65881;52.438;16.744;2023-05-07T05:39:24;9.63;;;6.43;;
76935;SDS011;65881;52.438;16.744;2023-05-07T05:41:50;9.48;;;6.45;;
76935;SDS011;65881;52.438;16.744;2023-05-07T05:44:16;7.45;;;5.35;;
76935;SDS011;65881;52.438;16.744;2023-05-07T05:46:41;8.40;;;5.50;;
76935;SDS011;65881;52.438;16.744;2023-05-07T05:49:07;6.93;;;5.45;;
76935;SDS011;65881;52.438;16.744;2023-05-07T05:51:33;10.27;;;6.38;;
76935;SDS011;65881;52.438;16.744;2023-05-07T05:53:59;9.05;;;6.38;;
76935;SDS011;65881;52.438;16.744;2023-05-07T05:56:24;7.05;;;5.03;;
76935;SDS011;65881;52.438;16.744;2023-05-07T05:58:50;10.85;;;6.18;;
76935;SDS011;65881;52.438;16.744;2023-05-07T06:01:17;7.70;;;5.95;;
76935;SDS011;65881;52.438;16.744;2023-05-07T06:03:43;8.63;;;5.68;;
76935;SDS011;65881;52.438;16.744;2023-05-07T06:06:09;10.25;;;5.57;;
76935;SDS011;65881;52.438;16.744;2023-05-07T06:08:35;8.73;;;5.18;;
76935;SDS011;65881;52.438;16.744;2023-05-07T06:11:01;7.22;;;4.70;;
76935;SDS011;65881;52.438;16.744;2023-05-07T06:13:27;6.82;;;5.65;;
76935;SDS011;65881;52.438;16.744;2023-05-07T06:15:52;7.97;;;4.95;;
76935;SDS011;65881;52.438;16.744;2023-05-07T06:18:18;6.35;;;4.95;;
76935;SDS011;65881;52.438;16.744;2023-05-07T06:20:44;5.32;;;4.32;;
76935;SDS011;65881;52.438;16.744;2023-05-07T06:23:10;6.35;;;4.85;;
76935;SDS011;65881;52.438;16.744;2023-05-07T06:25:35;8.55;;;4.80;;
76935;SDS011;65881;52.438;16.744;2023-05-07T06:28:01;5.85;;;4.55;;
76935;SDS011;65881;52.438;16.744;2023-05-07T06:30:27;6.03;;;4.20;;
76935;SDS011;65881;52.438;16.744;2023-05-07T06:32:52;6.65;;;4.75;;
76935;SDS011;65881;52.438;16.744;2023-05-07T06:35:18;5.75;;;4.57;;
76935;SDS011;65881;52.438;16.744;2023-05-07T06:37:44;6.47;;;4.45;;
76935;SDS011;65881;52.438;16.744;2023-05-07T06:40:10;7.00;;;4.07;;
76935;SDS011;65881;52.438;16.744;2023-05-07T06:42:36;6.63;;;3.83;;
76935;SDS011;65881;52.438;16.744;2023-05-07T06:45:02;7.35;;;4.15;;
76935;SDS011;65881;52.438;16.744;2023-05-07T06:47:28;6.50;;;3.50;;
76935;SDS011;65881;52.438;16.744;2023-05-07T06:49:54;4.78;;;3.35;;
76935;SDS011;65881;52.438;16.744;2023-05-07T06:52:20;4.75;;;3.10;;
76935;SDS011;65881;52.438;16.744;2023-05-07T06:54:45;6.32;;;2.97;;
76935;SDS011;65881;52.438;16.744;2023-05-07T06:57:11;6.00;;;3.38;;
76935;SDS011;65881;52.438;16.744;2023-05-07T06:59:37;6.47;;;3.55;;
76935;SDS011;65881;52.438;16.744;2023-05-07T07:02:03;5.25;;;3.33;;
76935;SDS011;65881;52.438;16.744;2023-05-07T07:04:28;3.88;;;2.67;;
76935;SDS011;65881;52.438;16.744;2023-05-07T07:06:55;5.00;;;3.00;;
76935;SDS011;65881;52.438;16.744;2023-05-07T07:09:21;3.63;;;2.47;;
76935;SDS011;65881;52.438;16.744;2023-05-07T07:11:47;3.78;;;2.45;;
76935;SDS011;65881;52.438;16.744;2023-05-07T07:14:13;3.63;;;2.65;;
76935;SDS011;65881;52.438;16.744;2023-05-07T07:16:39;3.83;;;2.90;;
76935;SDS011;65881;52.438;16.744;2023-05-07T07:21:40;4.57;;;2.65;;
76935;SDS011;65881;52.438;16.744;2023-05-07T07:24:07;6.80;;;2.90;;
76935;SDS011;65881;52.438;16.744;2023-05-07T07:26:33;3.40;;;2.50;;
76935;SDS011;65881;52.438;16.744;2023-05-07T07:28:59;4.00;;;2.78;;
76935;SDS011;65881;52.438;16.744;2023-05-07T07:31:25;3.65;;;2.42;;
76935;SDS011;65881;52.438;16.744;2023-05-07T07:33:51;3.30;;;2.53;;
76935;SDS011;65881;52.438;16.744;2023-05-07T07:36:16;3.92;;;2.47;;
76935;SDS011;65881;52.438;16.744;2023-05-07T07:38:42;4.50;;;2.20;;
76935;SDS011;65881;52.438;16.744;2023-05-07T07:41:08;7.10;;;3.28;;
76935;SDS011;65881;52.438;16.744;2023-05-07T07:43:34;6.45;;;2.55;;
76935;SDS011;65881;52.438;16.744;2023-05-07T07:46:00;4.60;;;2.25;;
76935;SDS011;65881;52.438;16.744;2023-05-07T07:48:26;3.55;;;2.35;;
76935;SDS011;65881;52.438;16.744;2023-05-07T07:50:52;3.15;;;2.03;;
76935;SDS011;65881;52.438;16.744;2023-05-07T07:53:21;3.63;;;2.42;;
76935;SDS011;65881;52.438;16.744;2023-05-07T07:55:46;3.65;;;2.20;;
76935;SDS011;65881;52.438;16.744;2023-05-07T07:58:12;4.95;;;2.35;;
76935;SDS011;65881;52.438;16.744;2023-05-07T08:00:38;4.30;;;2.35;;
76935;SDS011;65881;52.438;16.744;2023-05-07T08:03:03;4.95;;;3.75;;
76935;SDS011;65881;52.438;16.744;2023-05-07T08:05:30;6.45;;;2.95;;
76935;SDS011;65881;52.438;16.744;2023-05-07T08:07:55;3.78;;;2.50;;
76935;SDS011;65881;52.438;16.744;2023-05-07T08:10:21;4.88;;;2.55;;
76935;SDS011;65881;52.438;16.744;2023-05-07T08:12:47;3.97;;;2.40;;
76935;SDS011;65881;52.438;16.744;2023-05-07T08:15:14;4.55;;;2.58;;
76935;SDS011;65881;52.438;16.744;2023-05-07T08:17:40;3.35;;;2.95;;
76935;SDS011;65881;52.438;16.744;2023-05-07T08:20:05;6.63;;;2.38;;
76935;SDS011;65881;52.438;16.744;2023-05-07T08:22:32;4.40;;;2.63;;
76935;SDS011;65881;52.438;16.744;2023-05-07T08:24:59;3.25;;;2.30;;
76935;SDS011;65881;52.438;16.744;2023-05-07T08:27:25;5.15;;;2.42;;
76935;SDS011;65881;52.438;16.744;2023-05-07T08:29:50;3.70;;;2.03;;
76935;SDS011;65881;52.438;16.744;2023-05-07T08:32:16;4.32;;;2.28;;
76935;SDS011;65881;52.438;16.744;2023-05-07T08:34:42;2.97;;;2.63;;
76935;SDS011;65881;52.438;16.744;2023-05-07T08:37:07;4.25;;;2.67;;
76935;SDS011;65881;52.438;16.744;2023-05-07T08:39:33;4.80;;;2.20;;
76935;SDS011;65881;52.438;16.744;2023-05-07T08:42:00;5.97;;;2.30;;
76935;SDS011;65881;52.438;16.744;2023-05-07T08:47:01;3.25;;;2.10;;
76935;SDS011;65881;52.438;16.744;2023-05-07T08:49:28;3.42;;;2.35;;
76935;SDS011;65881;52.438;16.744;2023-05-07T08:51:53;2.88;;;2.35;;
76935;SDS011;65881;52.438;16.744;2023-05-07T08:54:21;3.20;;;2.10;;
76935;SDS011;65881;52.438;16.744;2023-05-07T08:56:47;3.38;;;2.08;;
76935;SDS011;65881;52.438;16.744;2023-05-07T08:59:13;3.60;;;2.70;;
76935;SDS011;65881;52.438;16.744;2023-05-07T09:01:39;4.47;;;2.70;;
76935;SDS011;65881;52.438;16.744;2023-05-07T09:04:05;4.00;;;2.30;;
76935;SDS011;65881;52.438;16.744;2023-05-07T09:06:32;3.60;;;2.25;;
76935;SDS011;65881;52.438;16.744;2023-05-07T09:09:02;2.95;;;2.55;;
76935;SDS011;65881;52.438;16.744;2023-05-07T09:11:30;3.33;;;2.30;;
76935;SDS011;65881;52.438;16.744;2023-05-07T09:13:56;3.33;;;2.40;;
76935;SDS011;65881;52.438;16.744;2023-05-07T09:16:24;3.72;;;2.47;;
76935;SDS011;65881;52.438;16.744;2023-05-07T09:18:51;4.40;;;2.50;;
76935;SDS011;65881;52.438;16.744;2023-05-07T09:21:18;3.85;;;2.80;;
76935;SDS011;65881;52.438;16.744;2023-05-07T09:23:44;6.30;;;3.30;;
76935;SDS011;65881;52.438;16.744;2023-05-07T09:26:10;4.38;;;2.95;;
76935;SDS011;65881;52.438;16.744;2023-05-07T09:28:39;3.50;;;2.60;;
76935;SDS011;65881;52.438;16.744;2023-05-07T09:31:06;2.83;;;2.40;;
76935;SDS011;65881;52.438;16.744;2023-05-07T09:33:33;4.40;;;2.83;;
76935;SDS011;65881;52.438;16.744;2023-05-07T09:36:02;5.78;;;3.20;;
76935;SDS011;65881;52.438;16.744;2023-05-07T09:38:28;3.85;;;3.17;;
76935;SDS011;65881;52.438;16.744;2023-05-07T09:41:04;5.72;;;2.85;;
76935;SDS011;65881;52.438;16.744;2023-05-07T09:43:35;4.20;;;3.40;;
76935;SDS011;65881;52.438;16.744;2023-05-07T09:46:13;3.67;;;2.78;;
76935;SDS011;65881;52.438;16.744;2023-05-07T09:48:47;3.75;;;2.95;;
76935;SDS011;65881;52.438;16.744;2023-05-07T09:53:56;4.00;;;3.30;;
76935;SDS011;65881;52.438;16.744;2023-05-07T09:56:25;7.25;;;4.75;;
76935;SDS011;65881;52.438;16.744;2023-05-07T09:58:52;3.63;;;2.90;;
76935;SDS011;65881;52.438;16.744;2023-05-07T10:01:19;5.32;;;3.38;;
76935;SDS011;65881;52.438;16.744;2023-05-07T10:03:47;4.70;;;3.50;;
76935;SDS011;65881;52.438;16.744;2023-05-07T10:06:15;4.50;;;3.00;;
76935;SDS011;65881;52.438;16.744;2023-05-07T10:08:42;6.03;;;4.18;;
76935;SDS011;65881;52.438;16.744;2023-05-07T10:11:09;3.90;;;3.50;;
76935;SDS011;65881;52.438;16.744;2023-05-07T10:13:35;4.50;;;3.20;;
76935;SDS011;65881;52.438;16.744;2023-05-07T10:16:05;3.55;;;3.00;;
76935;SDS011;65881;52.438;16.744;2023-05-07T10:18:31;3.90;;;3.03;;
76935;SDS011;65881;52.438;16.744;2023-05-07T10:21:01;3.60;;;2.63;;
76935;SDS011;65881;52.438;16.744;2023-05-07T10:23:35;3.80;;;2.92;;
76935;SDS011;65881;52.438;16.744;2023-05-07T10:26:02;3.58;;;2.58;;
76935;SDS011;65881;52.438;16.744;2023-05-07T10:28:30;4.50;;;2.63;;
76935;SDS011;65881;52.438;16.744;2023-05-07T10:33:34;4.80;;;3.17;;
76935;SDS011;65881;52.438;16.744;2023-05-07T10:36:02;4.60;;;2.95;;
76935;SDS011;65881;52.438;16.744;2023-05-07T10:38:30;3.92;;;2.65;;
76935;SDS011;65881;52.438;16.744;2023-05-07T10:40:56;5.25;;;2.85;;
76935;SDS011;65881;52.438;16.744;2023-05-07T10:43:22;3.60;;;2.85;;
76935;SDS011;65881;52.438;16.744;2023-05-07T10:49:06;3.92;;;2.70;;
76935;SDS011;65881;52.438;16.744;2023-05-07T10:51:34;3.28;;;2.60;;
76935;SDS011;65881;52.438;16.744;2023-05-07T10:56:34;3.17;;;2.60;;
76935;SDS011;65881;52.438;16.744;2023-05-07T11:01:58;3.83;;;3.42;;
76935;SDS011;65881;52.438;16.744;2023-05-07T11:04:27;4.13;;;2.95;;
76935;SDS011;65881;52.438;16.744;2023-05-07T11:07:28;3.88;;;3.10;;
76935;SDS011;65881;52.438;16.744;2023-05-07T11:12:16;6.60;;;3.45;;
76935;SDS011;65881;52.438;16.744;2023-05-07T11:15:01;4.93;;;3.03;;
76935;SDS011;65881;52.438;16.744;2023-05-07T11:17:28;5.25;;;3.50;;
76935;SDS011;65881;52.438;16.744;2023-05-07T11:25:01;5.30;;;2.88;;
76935;SDS011;65881;52.438;16.744;2023-05-07T11:27:31;3.53;;;2.88;;
76935;SDS011;65881;52.438;16.744;2023-05-07T11:30:00;5.07;;;2.75;;
76935;SDS011;65881;52.438;16.744;2023-05-07T11:32:32;6.70;;;2.90;;
76935;SDS011;65881;52.438;16.744;2023-05-07T11:34:58;3.30;;;2.75;;
76935;SDS011;65881;52.438;16.744;2023-05-07T11:37:28;4.25;;;3.30;;
76935;SDS011;65881;52.438;16.744;2023-05-07T11:40:05;4.03;;;2.70;;
76935;SDS011;65881;52.438;16.744;2023-05-07T11:42:36;3.30;;;2.72;;
76935;SDS011;65881;52.438;16.744;2023-05-07T11:45:06;5.53;;;2.60;;
76935;SDS011;65881;52.438;16.744;2023-05-07T11:47:33;3.70;;;2.30;;
76935;SDS011;65881;52.438;16.744;2023-05-07T11:50:04;3.60;;;2.83;;
76935;SDS011;65881;52.438;16.744;2023-05-07T11:52:33;3.47;;;2.22;;
76935;SDS011;65881;52.438;16.744;2023-05-07T11:54:59;2.75;;;2.30;;
76935;SDS011;65881;52.438;16.744;2023-05-07T11:57:26;3.65;;;2.25;;
76935;SDS011;65881;52.438;16.744;2023-05-07T11:59:56;3.97;;;2.40;;
76935;SDS011;65881;52.438;16.744;2023-05-07T12:02:23;5.70;;;2.33;;
76935;SDS011;65881;52.438;16.744;2023-05-07T12:04:53;3.05;;;2.05;;
76935;SDS011;65881;52.438;16.744;2023-05-07T12:07:19;2.47;;;2.05;;
76935;SDS011;65881;52.438;16.744;2023-05-07T12:09:45;4.70;;;2.53;;
76935;SDS011;65881;52.438;16.744;2023-05-07T12:12:12;2.53;;;2.15;;
76935;SDS011;65881;52.438;16.744;2023-05-07T12:14:43;2.95;;;2.10;;
76935;SDS011;65881;52.438;16.744;2023-05-07T12:17:10;3.92;;;1.90;;
76935;SDS011;65881;52.438;16.744;2023-05-07T12:19:38;3.58;;;2.65;;
76935;SDS011;65881;52.438;16.744;2023-05-07T12:22:10;4.72;;;2.28;;
76935;SDS011;65881;52.438;16.744;2023-05-07T12:24:46;5.40;;;2.42;;
76935;SDS011;65881;52.438;16.744;2023-05-07T12:27:16;4.75;;;2.58;;
76935;SDS011;65881;52.438;16.744;2023-05-07T12:29:46;3.03;;;2.20;;
76935;SDS011;65881;52.438;16.744;2023-05-07T12:32:19;3.20;;;2.50;;
76935;SDS011;65881;52.438;16.744;2023-05-07T12:37:12;3.28;;;2.40;;
76935;SDS011;65881;52.438;16.744;2023-05-07T12:39:38;3.58;;;2.10;;
76935;SDS011;65881;52.438;16.744;2023-05-07T12:42:09;3.20;;;2.40;;
76935;SDS011;65881;52.438;16.744;2023-05-07T12:44:48;3.08;;;2.20;;
76935;SDS011;65881;52.438;16.744;2023-05-07T12:47:14;3.72;;;2.22;;
76935;SDS011;65881;52.438;16.744;2023-05-07T12:49:40;3.72;;;2.95;;
76935;SDS011;65881;52.438;16.744;2023-05-07T12:52:12;3.08;;;2.72;;
76935;SDS011;65881;52.438;16.744;2023-05-07T12:54:38;3.25;;;2.72;;
76935;SDS011;65881;52.438;16.744;2023-05-07T12:57:04;3.17;;;2.75;;
76935;SDS011;65881;52.438;16.744;2023-05-07T12:59:33;4.03;;;2.90;;
76935;SDS011;65881;52.438;16.744;2023-05-07T13:02:03;6.53;;;3.13;;
76935;SDS011;65881;52.438;16.744;2023-05-07T13:04:35;4.05;;;2.90;;
76935;SDS011;65881;52.438;16.744;2023-05-07T13:07:01;4.03;;;2.88;;
76935;SDS011;65881;52.438;16.744;2023-05-07T13:09:27;3.88;;;3.15;;
76935;SDS011;65881;52.438;16.744;2023-05-07T13:11:57;3.88;;;2.90;;
76935;SDS011;65881;52.438;16.744;2023-05-07T13:14:26;3.75;;;2.63;;
76935;SDS011;65881;52.438;16.744;2023-05-07T13:16:58;2.88;;;2.53;;
76935;SDS011;65881;52.438;16.744;2023-05-07T13:19:23;3.70;;;2.53;;
76935;SDS011;65881;52.438;16.744;2023-05-07T13:21:49;3.55;;;2.60;;
76935;SDS011;65881;52.438;16.744;2023-05-07T13:24:15;2.83;;;2.50;;
76935;SDS011;65881;52.438;16.744;2023-05-07T13:26:41;4.18;;;2.60;;
76935;SDS011;65881;52.438;16.744;2023-05-07T13:29:06;3.10;;;2.80;;
76935;SDS011;65881;52.438;16.744;2023-05-07T13:31:32;5.68;;;2.92;;
76935;SDS011;65881;52.438;16.744;2023-05-07T13:33:58;3.97;;;2.50;;
76935;SDS011;65881;52.438;16.744;2023-05-07T13:36:24;4.45;;;2.50;;
76935;SDS011;65881;52.438;16.744;2023-05-07T13:38:50;3.20;;;2.45;;
76935;SDS011;65881;52.438;16.744;2023-05-07T13:41:16;3.45;;;2.30;;
76935;SDS011;65881;52.438;16.744;2023-05-07T13:43:42;4.68;;;2.55;;
76935;SDS011;65881;52.438;16.744;2023-05-07T13:46:08;3.78;;;2.60;;
76935;SDS011;65881;52.438;16.744;2023-05-07T13:48:34;3.22;;;2.42;;
76935;SDS011;65881;52.438;16.744;2023-05-07T13:50:59;3.55;;;2.60;;
76935;SDS011;65881;52.438;16.744;2023-05-07T13:53:28;3.65;;;2.47;;
76935;SDS011;65881;52.438;16.744;2023-05-07T13:55:54;4.10;;;2.70;;
76935;SDS011;65881;52.438;16.744;2023-05-07T13:58:20;3.63;;;2.50;;
76935;SDS011;65881;52.438;16.744;2023-05-07T14:00:51;3.28;;;2.75;;
76935;SDS011;65881;52.438;16.744;2023-05-07T14:03:17;3.08;;;2.65;;
76935;SDS011;65881;52.438;16.744;2023-05-07T14:05:44;4.35;;;2.78;;
76935;SDS011;65881;52.438;16.744;2023-05-07T14:08:10;7.18;;;3.78;;
76935;SDS011;65881;52.438;16.744;2023-05-07T14:10:39;5.90;;;2.78;;
76935;SDS011;65881;52.438;16.744;2023-05-07T14:13:05;3.90;;;2.97;;
76935;SDS011;65881;52.438;16.744;2023-05-07T14:15:33;3.83;;;3.00;;
76935;SDS011;65881;52.438;16.744;2023-05-07T14:17:59;3.00;;;2.70;;
76935;SDS011;65881;52.438;16.744;2023-05-07T14:20:25;4.78;;;2.95;;
76935;SDS011;65881;52.438;16.744;2023-05-07T14:22:51;4.00;;;2.65;;
76935;SDS011;65881;52.438;16.744;2023-05-07T14:25:17;3.75;;;2.35;;
76935;SDS011;65881;52.438;16.744;2023-05-07T14:27:42;6.82;;;3.58;;
76935;SDS011;65881;52.438;16.744;2023-05-07T14:30:08;2.60;;;2.28;;
76935;SDS011;65881;52.438;16.744;2023-05-07T14:32:34;3.42;;;2.53;;
76935;SDS011;65881;52.438;16.744;2023-05-07T14:35:00;4.57;;;3.33;;
76935;SDS011;65881;52.438;16.744;2023-05-07T14:37:25;3.88;;;2.40;;
76935;SDS011;65881;52.438;16.744;2023-05-07T14:39:51;4.43;;;3.00;;
76935;SDS011;65881;52.438;16.744;2023-05-07T14:42:17;3.72;;;2.85;;
76935;SDS011;65881;52.438;16.744;2023-05-07T14:44:43;3.35;;;2.63;;
76935;SDS011;65881;52.438;16.744;2023-05-07T14:47:10;3.85;;;3.03;;
76935;SDS011;65881;52.438;16.744;2023-05-07T14:49:35;4.00;;;2.60;;
76935;SDS011;65881;52.438;16.744;2023-05-07T14:52:01;6.88;;;2.80;;
76935;SDS011;65881;52.438;16.744;2023-05-07T14:54:35;4.15;;;3.03;;